createdAt,value
2017-12-04T00:02:30.515Z,0.20
2017-12-04T00:05:35.729Z,0.20
2017-12-04T00:08:40.588Z,0.30
2017-12-04T00:11:45.938Z,0.20
2017-12-04T00:14:51.259Z,0.20
2017-12-04T00:17:57.093Z,0.30
2017-12-04T00:21:02.411Z,0.30
2017-12-04T00:24:07.817Z,0.30
2017-12-04T00:27:12.710Z,0.30
2017-12-04T00:30:18.302Z,0.20
2017-12-04T00:33:23.337Z,0.30
2017-12-04T00:36:29.679Z,0.30
2017-12-04T00:39:35.492Z,0.30
2017-12-04T00:42:41.990Z,0.30
2017-12-04T00:45:47.447Z,0.30
2017-12-04T00:48:53.308Z,0.30
2017-12-04T00:51:59.430Z,0.30
2017-12-04T00:55:04.216Z,0.40
2017-12-04T00:58:09.156Z,0.40
2017-12-04T01:01:15.483Z,0.50
2017-12-04T01:04:20.636Z,0.50
2017-12-04T01:07:25.973Z,0.40
2017-12-04T01:10:30.751Z,0.40
2017-12-04T01:13:35.686Z,0.50
2017-12-04T01:16:40.635Z,0.50
2017-12-04T01:19:47.057Z,0.50
2017-12-04T01:22:52.516Z,0.50
2017-12-04T01:25:58.321Z,0.40
2017-12-04T01:29:03.479Z,0.40
2017-12-04T01:32:09.582Z,0.30
2017-12-04T01:35:15.064Z,0.30
2017-12-04T01:38:20.643Z,0.40
2017-12-04T01:41:25.441Z,0.30
2017-12-04T01:44:32.597Z,0.40
2017-12-04T01:47:37.667Z,0.40
2017-12-04T01:50:43.392Z,0.50
2017-12-04T01:53:49.152Z,0.50
2017-12-04T01:56:54.878Z,0.60
2017-12-04T02:00:00.389Z,0.60
2017-12-04T02:03:05.905Z,0.60
2017-12-04T02:06:10.960Z,0.60
2017-12-04T02:09:16.444Z,0.60
2017-12-04T02:12:22.742Z,0.60
2017-12-04T02:15:28.331Z,0.60
2017-12-04T02:18:33.682Z,0.50
2017-12-04T02:21:39.243Z,0.60
2017-12-04T02:24:44.720Z,0.60
2017-12-04T02:27:50.160Z,0.60
2017-12-04T02:30:55.224Z,0.60
2017-12-04T02:34:01.013Z,0.60
2017-12-04T02:37:06.876Z,0.60
2017-12-04T02:40:14.015Z,0.50
2017-12-04T02:43:18.968Z,0.60
2017-12-04T02:46:25.014Z,0.60
2017-12-04T02:49:30.654Z,0.60
2017-12-04T02:52:43.020Z,0.70
2017-12-04T02:55:49.296Z,0.60
2017-12-04T02:58:54.711Z,0.60
2017-12-04T03:02:00.144Z,0.70
2017-12-04T03:05:05.028Z,0.50
2017-12-04T03:08:10.479Z,0.40
2017-12-04T03:11:16.004Z,0.50
2017-12-04T03:14:22.701Z,0.50
2017-12-04T03:17:27.426Z,0.50
2017-12-04T03:20:32.981Z,0.50
2017-12-04T03:23:39.372Z,0.40
2017-12-04T03:26:44.631Z,0.40
2017-12-04T03:29:50.080Z,0.40
2017-12-04T03:32:55.652Z,0.40
2017-12-04T03:36:01.252Z,0.50
2017-12-04T03:39:09.036Z,0.40
2017-12-04T03:42:13.987Z,0.50
2017-12-04T03:45:19.535Z,0.40
2017-12-04T03:48:24.816Z,0.40
2017-12-04T03:51:30.548Z,0.40
2017-12-04T03:54:36.093Z,0.50
2017-12-04T03:57:41.409Z,0.50
2017-12-04T04:00:46.327Z,0.50
2017-12-04T04:03:51.892Z,0.50
2017-12-04T04:06:56.828Z,0.50
2017-12-04T04:10:01.946Z,0.60
2017-12-04T04:13:07.663Z,0.50
2017-12-04T04:16:12.900Z,0.50
2017-12-04T04:19:18.803Z,0.60
2017-12-04T04:22:24.240Z,0.60
2017-12-04T04:25:29.207Z,0.60
2017-12-04T04:28:34.440Z,0.60
2017-12-04T04:31:39.972Z,0.60
2017-12-04T04:34:44.776Z,0.60
2017-12-04T04:37:49.832Z,0.60
2017-12-04T04:40:55.366Z,0.70
2017-12-04T04:44:00.386Z,0.70
2017-12-04T04:47:06.101Z,0.60
2017-12-04T04:50:11.280Z,0.60
2017-12-04T04:53:17.096Z,0.60
2017-12-04T04:56:23.749Z,0.50
2017-12-04T04:59:28.712Z,0.50
2017-12-04T05:02:34.693Z,0.60
2017-12-04T05:05:41.051Z,0.50
2017-12-04T05:08:46.629Z,0.50
2017-12-04T05:11:53.127Z,0.50
2017-12-04T05:15:03.880Z,0.50
2017-12-04T05:18:15.772Z,0.60
2017-12-04T05:21:20.636Z,0.70
2017-12-04T05:24:25.990Z,0.70
2017-12-04T05:27:31.527Z,0.70
2017-12-04T05:30:36.932Z,0.60
2017-12-04T05:33:41.864Z,0.60
2017-12-04T05:36:47.308Z,0.60
2017-12-04T05:39:53.848Z,0.70
2017-12-04T05:42:59.363Z,0.60
2017-12-04T05:46:04.414Z,0.70
2017-12-04T05:49:09.099Z,0.60
2017-12-04T05:52:14.442Z,0.50
2017-12-04T05:55:19.420Z,0.50
2017-12-04T05:58:24.461Z,0.70
2017-12-04T06:01:34.845Z,0.80
2017-12-04T06:04:40.092Z,0.70
2017-12-04T06:07:45.103Z,0.50
2017-12-04T06:10:50.228Z,0.60
2017-12-04T06:14:04.501Z,0.70
2017-12-04T06:17:10.115Z,0.70
2017-12-04T06:20:15.139Z,0.60
2017-12-04T06:23:20.584Z,0.60
2017-12-04T06:26:26.633Z,0.50
2017-12-04T06:29:31.790Z,0.60
2017-12-04T06:32:38.686Z,0.60
2017-12-04T06:35:44.339Z,0.70
2017-12-04T06:38:50.117Z,0.70
2017-12-04T06:41:54.992Z,0.80
2017-12-04T06:45:00.321Z,0.80
2017-12-04T06:48:05.633Z,0.80
2017-12-04T06:51:12.091Z,0.90
2017-12-04T06:54:17.252Z,0.90
2017-12-04T06:57:22.403Z,0.70
2017-12-04T07:00:27.681Z,0.60
2017-12-04T07:03:33.040Z,0.60
2017-12-04T07:06:38.831Z,0.70
2017-12-04T07:09:44.438Z,0.70
2017-12-04T07:12:50.595Z,0.80
2017-12-04T07:15:55.685Z,0.80
2017-12-04T07:19:01.984Z,0.70
2017-12-04T07:22:07.576Z,0.80
2017-12-04T07:25:15.243Z,0.80
2017-12-04T07:28:21.160Z,0.80
2017-12-04T07:31:26.261Z,0.90
2017-12-04T07:34:32.644Z,0.80
2017-12-04T07:37:37.632Z,0.80
2017-12-04T07:40:42.576Z,0.80
2017-12-04T07:43:48.096Z,0.80
2017-12-04T07:46:53.395Z,0.90
2017-12-04T07:49:58.283Z,0.90
2017-12-04T07:53:03.736Z,0.90
2017-12-04T07:56:10.405Z,0.80
2017-12-04T07:59:15.277Z,0.80
2017-12-04T08:02:20.527Z,0.80
2017-12-04T08:05:26.482Z,0.80
2017-12-04T08:08:31.926Z,0.80
2017-12-04T08:11:38.951Z,0.90
2017-12-04T08:14:44.827Z,0.90
2017-12-04T08:17:50.384Z,1.00
2017-12-04T08:20:57.051Z,1.10
2017-12-04T08:24:01.721Z,1.20
2017-12-04T08:27:06.806Z,1.20
2017-12-04T08:30:11.711Z,1.00
2017-12-04T08:33:17.728Z,0.90
2017-12-04T08:36:22.516Z,0.80
2017-12-04T08:39:27.466Z,0.80
2017-12-04T08:42:33.608Z,0.90
2017-12-04T08:45:39.032Z,1.00
2017-12-04T08:48:45.210Z,1.00
2017-12-04T08:51:53.371Z,1.10
2017-12-04T08:54:59.188Z,1.10
2017-12-04T08:58:06.737Z,1.00
2017-12-04T09:01:12.564Z,1.20
2017-12-04T09:04:18.740Z,1.10
2017-12-04T09:07:24.136Z,1.10
2017-12-04T09:10:29.898Z,1.20
2017-12-04T09:13:35.345Z,1.40
2017-12-04T09:16:40.733Z,1.40
2017-12-04T09:19:46.945Z,1.40
2017-12-04T09:22:52.268Z,1.40
2017-12-04T09:25:57.670Z,1.40
2017-12-04T09:29:02.844Z,1.50
2017-12-04T09:32:09.321Z,1.40
2017-12-04T09:35:14.624Z,1.50
2017-12-04T09:38:21.388Z,1.60
2017-12-04T09:41:27.109Z,1.60
2017-12-04T09:44:34.121Z,1.60
2017-12-04T09:47:40.652Z,1.60
2017-12-04T09:50:46.071Z,1.50
2017-12-04T09:53:51.172Z,1.40
2017-12-04T09:56:56.568Z,1.50
2017-12-04T10:00:01.507Z,1.50
2017-12-04T10:03:07.116Z,1.60
2017-12-04T10:06:13.564Z,1.50
2017-12-04T10:09:21.809Z,1.50
2017-12-04T10:12:27.069Z,1.50
2017-12-04T10:15:32.856Z,1.60
2017-12-04T10:18:38.300Z,1.60
2017-12-04T10:21:43.760Z,1.60
2017-12-04T10:24:49.319Z,1.60
2017-12-04T10:27:54.956Z,1.60
2017-12-04T10:31:01.327Z,1.60
2017-12-04T10:34:06.248Z,1.50
2017-12-04T10:37:11.101Z,1.30
2017-12-04T10:40:16.537Z,1.40
2017-12-04T10:43:21.380Z,1.50
2017-12-04T10:46:27.112Z,1.60
2017-12-04T10:49:33.340Z,1.80
2017-12-04T10:52:39.640Z,1.70
2017-12-04T10:55:45.922Z,1.70
2017-12-04T10:58:51.571Z,1.80
2017-12-04T11:01:56.849Z,1.80
2017-12-04T11:05:02.096Z,2.10
2017-12-04T11:08:07.284Z,2.10
2017-12-04T11:11:12.381Z,2.10
2017-12-04T11:14:17.884Z,2.10
2017-12-04T11:17:24.128Z,2.00
2017-12-04T11:20:29.008Z,2.10
2017-12-04T11:23:34.815Z,2.20
2017-12-04T11:26:40.231Z,2.10
2017-12-04T11:29:46.310Z,2.30
2017-12-04T11:32:56.069Z,2.30
2017-12-04T11:36:02.869Z,2.40
2017-12-04T11:39:08.819Z,2.40
2017-12-04T11:42:14.868Z,2.30
2017-12-04T11:45:22.092Z,2.00
2017-12-04T11:48:27.967Z,2.00
2017-12-04T11:51:33.792Z,1.60
2017-12-04T11:54:38.714Z,1.50
2017-12-04T11:57:44.130Z,1.40
2017-12-04T12:00:55.057Z,1.50
2017-12-04T12:04:01.644Z,1.40
2017-12-04T12:07:06.637Z,1.40
2017-12-04T12:10:11.662Z,1.40
2017-12-04T12:13:17.044Z,1.40
2017-12-04T12:16:22.182Z,1.40
2017-12-04T12:19:28.601Z,1.40
2017-12-04T12:22:34.552Z,1.60
2017-12-04T12:25:39.635Z,1.50
2017-12-04T12:28:44.980Z,1.50
2017-12-04T12:31:50.004Z,1.40
2017-12-04T12:34:59.027Z,1.40
2017-12-04T12:38:04.767Z,1.40
2017-12-04T12:41:10.675Z,1.40
2017-12-04T12:44:16.167Z,1.40
2017-12-04T12:47:21.504Z,1.50
2017-12-04T12:50:26.338Z,1.60
2017-12-04T12:53:33.332Z,1.50
2017-12-04T12:56:39.968Z,1.50
2017-12-04T12:59:45.336Z,1.40
2017-12-04T13:02:56.920Z,1.40
2017-12-04T13:06:01.832Z,1.30
2017-12-04T13:09:06.694Z,1.30
2017-12-04T13:12:11.888Z,1.40
2017-12-04T13:15:16.703Z,1.40
2017-12-04T13:18:22.343Z,1.40
2017-12-04T13:21:27.664Z,1.50
2017-12-04T13:24:32.575Z,1.50
2017-12-04T13:27:38.379Z,1.50
2017-12-04T13:30:44.251Z,1.70
2017-12-04T13:34:01.852Z,1.90
2017-12-04T13:37:07.056Z,1.60
2017-12-04T13:40:12.539Z,1.50
2017-12-04T13:43:17.996Z,1.50
2017-12-04T13:46:23.856Z,1.60
2017-12-04T13:49:28.744Z,1.60
2017-12-04T13:52:33.431Z,1.70
2017-12-04T13:55:38.937Z,1.60
2017-12-04T13:58:44.603Z,1.60
2017-12-04T14:01:49.951Z,1.60
2017-12-04T14:04:55.162Z,1.70
2017-12-04T14:08:00.573Z,1.70
2017-12-04T14:11:06.315Z,1.80
2017-12-04T14:14:11.403Z,1.80
2017-12-04T14:17:16.221Z,1.90
2017-12-04T14:20:21.490Z,1.80
2017-12-04T14:23:27.296Z,1.90
2017-12-04T14:26:40.927Z,1.90
2017-12-04T14:29:46.305Z,1.90
2017-12-04T14:32:52.656Z,1.80
2017-12-04T14:35:58.795Z,1.80
2017-12-04T14:39:04.431Z,1.90
2017-12-04T14:42:10.637Z,1.90
2017-12-04T14:45:16.220Z,1.90
2017-12-04T14:48:22.769Z,1.90
2017-12-04T14:51:27.631Z,1.90
2017-12-04T14:54:32.956Z,2.00
2017-12-04T14:57:37.735Z,2.00
2017-12-04T15:00:43.087Z,2.10
2017-12-04T15:03:48.840Z,2.10
2017-12-04T15:06:58.421Z,2.10
2017-12-04T15:10:03.247Z,2.00
2017-12-04T15:13:09.419Z,1.80
2017-12-04T15:16:16.876Z,1.80
2017-12-04T15:19:22.568Z,1.80
2017-12-04T15:22:29.882Z,1.80
2017-12-04T15:25:41.288Z,2.00
2017-12-04T15:28:46.208Z,2.00
2017-12-04T15:31:54.367Z,2.00
2017-12-04T15:35:00.183Z,2.10
2017-12-04T15:38:05.996Z,2.10
2017-12-04T15:41:11.349Z,2.10
2017-12-04T15:44:16.073Z,2.10
2017-12-04T15:47:21.652Z,1.90
2017-12-04T15:50:35.391Z,1.90
2017-12-04T15:53:41.144Z,1.90
2017-12-04T15:56:47.106Z,2.00
2017-12-04T15:59:52.015Z,2.00
2017-12-04T16:02:57.838Z,2.00
2017-12-04T16:06:02.792Z,2.00
2017-12-04T16:09:10.440Z,2.00
2017-12-04T16:12:15.778Z,2.00
2017-12-04T16:15:22.461Z,2.00
2017-12-04T16:18:27.680Z,1.90
2017-12-04T16:21:33.301Z,2.00
2017-12-04T16:24:39.500Z,2.10
2017-12-04T16:27:44.504Z,2.00
2017-12-04T16:30:51.557Z,2.00
2017-12-04T16:33:57.500Z,2.00
2017-12-04T16:37:02.365Z,2.00
2017-12-04T16:40:07.399Z,2.00
2017-12-04T16:43:16.167Z,2.10
2017-12-04T16:46:21.628Z,2.00
2017-12-04T16:49:33.228Z,2.10
2017-12-04T16:52:38.268Z,2.10
2017-12-04T16:55:43.062Z,2.20
2017-12-04T16:58:48.549Z,2.20
2017-12-04T17:01:56.342Z,2.20
2017-12-04T17:05:07.280Z,2.10
2017-12-04T17:08:13.115Z,2.10
2017-12-04T17:11:20.140Z,2.00
2017-12-04T17:14:25.311Z,2.00
2017-12-04T17:17:30.902Z,2.10
2017-12-04T17:20:39.517Z,2.10
2017-12-04T17:23:48.145Z,2.20
2017-12-04T17:26:57.617Z,2.20
2017-12-04T17:30:03.084Z,2.20
2017-12-04T17:33:08.612Z,2.10
2017-12-04T17:36:17.308Z,2.00
2017-12-04T17:39:22.644Z,2.10
2017-12-04T17:42:28.176Z,2.20
2017-12-04T17:45:34.061Z,2.20
2017-12-04T17:48:45.305Z,2.20
2017-12-04T17:51:50.448Z,2.20
2017-12-04T17:54:56.253Z,2.20
2017-12-04T17:58:03.001Z,2.20
2017-12-04T18:01:08.969Z,2.20
2017-12-04T18:04:14.789Z,2.20
2017-12-04T18:07:20.615Z,2.30
2017-12-04T18:10:26.265Z,2.20
2017-12-04T18:13:33.291Z,2.30
2017-12-04T18:16:38.356Z,2.40
2017-12-04T18:19:46.837Z,2.40
2017-12-04T18:22:51.708Z,2.40
2017-12-04T18:25:58.956Z,2.40
2017-12-04T18:29:04.597Z,2.50
2017-12-04T18:32:09.585Z,2.50
2017-12-04T18:35:14.307Z,2.60
2017-12-04T18:38:19.352Z,2.60
2017-12-04T18:41:30.974Z,2.60
2017-12-04T18:44:36.532Z,2.70
2017-12-04T18:47:41.803Z,2.60
2017-12-04T18:50:59.271Z,2.60
2017-12-04T18:54:03.970Z,2.60
2017-12-04T18:57:09.407Z,2.60
2017-12-04T19:00:16.557Z,2.60
2017-12-04T19:03:22.196Z,2.70
2017-12-04T19:06:28.113Z,2.60
2017-12-04T19:09:34.995Z,2.60
2017-12-04T19:12:40.180Z,2.60
2017-12-04T19:15:45.825Z,2.60
2017-12-04T19:18:51.877Z,2.60
2017-12-04T19:21:57.036Z,2.60
2017-12-04T19:25:02.452Z,2.60
2017-12-04T19:28:13.512Z,2.60
2017-12-04T19:31:20.976Z,2.70
2017-12-04T19:34:28.560Z,2.50
2017-12-04T19:37:36.164Z,2.40
2017-12-04T19:40:41.588Z,2.50
2017-12-04T19:43:58.715Z,2.40
2017-12-04T19:47:09.263Z,2.40
2017-12-04T19:50:17.987Z,2.40
2017-12-04T19:53:22.960Z,2.40
2017-12-04T19:56:28.636Z,2.40
2017-12-04T19:59:36.000Z,2.40
2017-12-04T20:02:42.000Z,2.30
2017-12-04T20:05:46.790Z,2.30
2017-12-04T20:08:53.708Z,2.20
2017-12-04T20:11:59.962Z,2.20
2017-12-04T20:15:05.843Z,2.30
2017-12-04T20:18:11.663Z,2.20
2017-12-04T20:21:16.656Z,2.20
2017-12-04T20:24:21.629Z,2.20
2017-12-04T20:27:26.959Z,2.20
2017-12-04T20:30:32.132Z,2.20
2017-12-04T20:33:43.262Z,2.10
2017-12-04T20:36:48.094Z,2.20
2017-12-04T20:39:52.916Z,2.30
2017-12-04T20:42:58.407Z,2.30
2017-12-04T20:46:06.488Z,2.30
2017-12-04T20:49:13.117Z,2.40
2017-12-04T20:52:26.792Z,2.40
2017-12-04T20:55:36.705Z,2.30
2017-12-04T20:58:41.624Z,2.20
2017-12-04T21:02:01.268Z,2.30
2017-12-04T21:05:07.275Z,2.30
2017-12-04T21:08:14.593Z,2.30
2017-12-04T21:11:32.609Z,2.30
2017-12-04T21:14:51.173Z,2.20
2017-12-04T21:17:56.972Z,2.20
2017-12-04T21:21:07.376Z,2.30
2017-12-04T21:24:13.328Z,2.40
2017-12-04T21:27:33.625Z,2.40
2017-12-04T21:30:38.996Z,2.40
2017-12-04T21:33:56.208Z,2.30
2017-12-04T21:37:01.584Z,2.30
2017-12-04T21:40:06.967Z,2.30
2017-12-04T21:43:12.424Z,2.30
2017-12-04T21:46:18.191Z,2.30
2017-12-04T21:49:23.576Z,2.30
2017-12-04T21:52:38.852Z,2.20
2017-12-04T21:55:53.049Z,2.20
2017-12-04T21:59:00.084Z,2.20
2017-12-04T22:02:07.437Z,2.20
2017-12-04T22:05:12.632Z,2.10
2017-12-04T22:08:19.563Z,2.00
2017-12-04T22:11:25.836Z,1.90
2017-12-04T22:14:31.736Z,1.90
2017-12-04T22:17:41.309Z,2.00
2017-12-04T22:20:46.364Z,2.00
2017-12-04T22:23:53.245Z,2.00
2017-12-04T22:27:01.716Z,2.00
2017-12-04T22:30:16.352Z,1.90
2017-12-04T22:33:21.920Z,1.90
2017-12-04T22:36:31.333Z,2.00
2017-12-04T22:39:36.423Z,2.00
2017-12-04T22:42:45.888Z,2.10
2017-12-04T22:45:54.548Z,2.10
2017-12-04T22:49:04.299Z,2.20
2017-12-04T22:52:10.294Z,2.30
2017-12-04T22:55:15.083Z,2.40
2017-12-04T22:58:21.509Z,2.50
2017-12-04T23:01:27.108Z,2.50
2017-12-04T23:04:33.052Z,2.40
2017-12-04T23:07:44.578Z,2.40
2017-12-04T23:10:49.780Z,2.40
2017-12-04T23:13:56.397Z,2.40
2017-12-04T23:17:02.867Z,2.40
2017-12-04T23:20:08.079Z,2.40
2017-12-04T23:23:13.488Z,2.50
2017-12-04T23:26:19.320Z,2.50
2017-12-04T23:29:24.508Z,2.50
2017-12-04T23:32:32.567Z,2.60
2017-12-04T23:35:38.142Z,2.60
2017-12-04T23:38:44.230Z,2.70
2017-12-04T23:41:49.481Z,2.70
2017-12-04T23:44:55.461Z,2.80
2017-12-04T23:48:00.785Z,2.90
2017-12-04T23:51:06.596Z,2.90
2017-12-04T23:54:15.394Z,3.00
2017-12-04T23:57:20.667Z,2.90
